Terminal Aerodrome Forecast
Issued by NWS

Home | Current Version | Previous Version | Graphics & Text | Print | Product List | Glossary Off
Versions: 1 2 3 4 5 6 7 8 9 10 11 12 13 14 15 16 17 18 19 20 21 22 23 24 25 26 27 28 29 30 31

181
FTUS43 KDDC 231140
TAFGCK
TAF
KGCK 231140Z 2312/2412 02006KT 1/2SM FZFG OVC002
     FM231700 08007KT 4SM BR BKN003
     FM231900 09007KT P6SM BKN008
     FM240100 10011KT P6SM BKN020
     FM240400 10011G20KT P6SM -FZDZ BKN008
     FM240600 10010G18KT 2SM -FZDZ OVC003=

USA.gov is the U.S. government's official web portal to all federal, state and local government web resources and services.